createdAt,value
2023-05-15T00:00:34.787Z,14.57
2023-05-15T00:03:02.523Z,14.53
2023-05-15T00:05:29.356Z,14.49
2023-05-15T00:07:56.001Z,14.47
2023-05-15T00:10:22.663Z,14.42
2023-05-15T00:12:49.426Z,14.41
2023-05-15T00:15:16.040Z,14.36
2023-05-15T00:17:42.635Z,14.36
2023-05-15T00:20:10.085Z,14.36
2023-05-15T00:22:36.874Z,14.32
2023-05-15T00:25:03.766Z,14.29
2023-05-15T00:27:30.520Z,14.29
2023-05-15T00:29:57.149Z,14.30
2023-05-15T00:32:24.731Z,14.31
2023-05-15T00:34:51.269Z,14.29
2023-05-15T00:37:19.222Z,14.27
2023-05-15T00:39:46.106Z,14.25
2023-05-15T00:42:15.471Z,14.20
2023-05-15T00:44:44.370Z,14.13
2023-05-15T00:47:11.900Z,14.06
2023-05-15T00:49:39.053Z,14.07
2023-05-15T00:52:08.615Z,14.07
2023-05-15T00:54:35.542Z,14.03
2023-05-15T00:57:05.356Z,14.01
2023-05-15T00:59:33.092Z,13.97
2023-05-15T01:01:59.999Z,13.86
2023-05-15T01:04:26.754Z,13.75
2023-05-15T01:06:54.136Z,13.63
2023-05-15T01:09:23.696Z,13.55
2023-05-15T01:11:53.498Z,13.54
2023-05-15T01:14:20.057Z,13.50
2023-05-15T01:16:46.744Z,13.45
2023-05-15T01:19:13.498Z,13.43
2023-05-15T01:22:18.174Z,13.41
2023-05-15T01:25:06.829Z,13.30
2023-05-15T01:27:48.588Z,13.25
2023-05-15T01:30:24.521Z,13.24
2023-05-15T01:33:02.826Z,13.17
2023-05-15T01:35:41.651Z,13.19
2023-05-15T01:38:27.775Z,13.18
2023-05-15T01:41:03.365Z,13.20
2023-05-15T01:43:33.118Z,13.21
2023-05-15T01:46:00.963Z,13.18
2023-05-15T01:48:31.464Z,13.15
2023-05-15T01:51:02.794Z,13.12
2023-05-15T01:53:32.327Z,13.05
2023-05-15T01:55:59.973Z,12.99
2023-05-15T01:58:27.655Z,12.96
2023-05-15T02:00:55.463Z,12.95
2023-05-15T02:03:22.338Z,12.96
2023-05-15T02:05:50.732Z,12.93
2023-05-15T02:08:17.677Z,12.91
2023-05-15T02:10:44.579Z,12.95
2023-05-15T02:13:12.677Z,12.98
2023-05-15T02:15:39.558Z,12.92
2023-05-15T02:18:06.589Z,12.85
2023-05-15T02:20:33.283Z,12.79
2023-05-15T02:22:59.961Z,12.79
2023-05-15T02:25:43.695Z,12.80
2023-05-15T02:28:20.805Z,12.83
2023-05-15T02:31:05.820Z,12.79
2023-05-15T02:33:45.917Z,12.77
2023-05-15T02:36:19.142Z,12.64
2023-05-15T02:38:52.206Z,12.57
2023-05-15T02:41:19.840Z,12.55
2023-05-15T02:43:49.071Z,12.56
2023-05-15T02:46:16.378Z,12.52
2023-05-15T02:48:44.173Z,12.59
2023-05-15T02:51:11.126Z,12.60
2023-05-15T02:53:41.880Z,12.61
2023-05-15T02:56:16.562Z,12.62
2023-05-15T02:58:43.380Z,12.56
2023-05-15T03:01:28.902Z,12.59
2023-05-15T03:03:55.630Z,12.59
2023-05-15T03:06:22.492Z,12.64
2023-05-15T03:08:49.127Z,12.71
2023-05-15T03:11:16.356Z,12.68
2023-05-15T03:13:42.939Z,12.64
2023-05-15T03:16:09.805Z,12.68
2023-05-15T03:18:36.525Z,12.73
2023-05-15T03:21:03.288Z,12.73
2023-05-15T03:23:31.444Z,12.72
2023-05-15T03:25:59.222Z,12.70
2023-05-15T03:28:26.014Z,12.68
2023-05-15T03:30:52.668Z,12.65
2023-05-15T03:33:19.594Z,12.63
2023-05-15T03:35:46.441Z,12.60
2023-05-15T03:38:13.153Z,12.54
2023-05-15T03:40:39.874Z,12.46
2023-05-15T03:43:06.817Z,12.44
2023-05-15T03:45:37.160Z,12.41
2023-05-15T03:48:03.981Z,12.37
2023-05-15T03:50:30.885Z,12.31
2023-05-15T03:52:57.683Z,12.33
2023-05-15T03:55:24.594Z,12.31
2023-05-15T03:57:51.525Z,12.32
2023-05-15T04:00:19.147Z,12.23
2023-05-15T04:02:46.211Z,12.15
2023-05-15T04:05:13.026Z,12.08
2023-05-15T04:07:39.803Z,12.06
2023-05-15T04:10:07.075Z,12.03
2023-05-15T04:12:35.495Z,12.11
2023-05-15T04:15:16.980Z,12.15
2023-05-15T04:17:45.101Z,12.16
2023-05-15T04:20:14.353Z,12.16
2023-05-15T04:22:42.574Z,12.15
2023-05-15T04:25:11.040Z,12.15
2023-05-15T04:27:38.865Z,12.11
2023-05-15T04:30:06.495Z,12.16
2023-05-15T04:32:34.044Z,12.19
2023-05-15T04:35:01.486Z,12.19
2023-05-15T04:37:29.206Z,12.15
2023-05-15T04:39:55.849Z,12.16
2023-05-15T04:42:23.579Z,12.20
2023-05-15T04:44:50.305Z,12.19
2023-05-15T04:47:16.987Z,12.21
2023-05-15T04:49:43.681Z,12.22
2023-05-15T04:52:11.413Z,12.22
2023-05-15T04:54:38.103Z,12.27
2023-05-15T04:57:05.098Z,12.24
2023-05-15T04:59:31.789Z,12.32
2023-05-15T05:01:58.586Z,12.29
2023-05-15T05:04:25.368Z,12.31
2023-05-15T05:06:52.543Z,12.35
2023-05-15T05:09:20.093Z,12.33
2023-05-15T05:11:47.743Z,12.34
2023-05-15T05:14:15.294Z,12.27
2023-05-15T05:16:44.909Z,12.17
2023-05-15T05:19:11.791Z,12.16
2023-05-15T05:21:38.821Z,12.16
2023-05-15T05:24:05.950Z,12.17
2023-05-15T05:26:32.748Z,12.20
2023-05-15T05:28:59.452Z,12.21
2023-05-15T05:31:26.223Z,12.26
2023-05-15T05:33:52.981Z,12.25
2023-05-15T05:36:19.725Z,12.24
2023-05-15T05:38:46.541Z,12.28
2023-05-15T05:41:13.185Z,12.33
2023-05-15T05:43:39.820Z,12.29
2023-05-15T05:46:07.921Z,12.18
2023-05-15T05:48:34.593Z,12.18
2023-05-15T05:51:03.547Z,12.07
2023-05-15T05:53:30.279Z,12.01
2023-05-15T05:55:56.984Z,11.93
2023-05-15T05:58:26.441Z,11.95
2023-05-15T06:00:53.719Z,11.95
2023-05-15T06:03:24.600Z,12.00
2023-05-15T06:05:51.369Z,11.96
2023-05-15T06:08:18.142Z,11.99
2023-05-15T06:10:44.794Z,12.04
2023-05-15T06:13:11.931Z,12.03
2023-05-15T06:15:39.769Z,12.01
2023-05-15T06:18:06.781Z,12.02
2023-05-15T06:20:34.091Z,12.00
2023-05-15T06:23:00.861Z,11.99
2023-05-15T06:25:27.482Z,11.97
2023-05-15T06:27:54.151Z,11.92
2023-05-15T06:30:20.795Z,11.87
2023-05-15T06:32:47.537Z,11.89
2023-05-15T06:35:14.381Z,11.81
2023-05-15T06:37:41.113Z,11.73
2023-05-15T06:40:08.577Z,11.78
2023-05-15T06:42:35.560Z,11.80
2023-05-15T06:45:02.266Z,11.89
2023-05-15T06:47:29.086Z,12.01
2023-05-15T06:49:55.732Z,12.00
2023-05-15T06:52:22.392Z,12.06
2023-05-15T06:54:48.993Z,12.09
2023-05-15T06:57:16.062Z,12.04
2023-05-15T06:59:43.890Z,12.08
2023-05-15T07:02:10.879Z,12.08
2023-05-15T07:04:37.768Z,11.98
2023-05-15T07:07:04.669Z,11.99
2023-05-15T07:09:31.416Z,12.09
2023-05-15T07:11:58.102Z,12.17
2023-05-15T07:14:24.892Z,12.26
2023-05-15T07:16:51.692Z,12.34
2023-05-15T07:19:21.098Z,12.33
2023-05-15T07:21:48.063Z,12.44
2023-05-15T07:24:14.702Z,12.56
2023-05-15T07:26:50.647Z,12.66
2023-05-15T07:29:24.636Z,12.71
2023-05-15T07:31:52.703Z,12.82
2023-05-15T07:34:19.489Z,12.98
2023-05-15T07:36:46.087Z,13.36
2023-05-15T07:39:13.348Z,13.84
2023-05-15T07:41:40.024Z,14.28
2023-05-15T07:44:07.105Z,14.75
2023-05-15T07:46:34.774Z,15.22
2023-05-15T07:49:01.854Z,15.62
2023-05-15T07:51:47.303Z,15.90
2023-05-15T07:54:13.943Z,16.14
2023-05-15T07:56:40.664Z,16.42
2023-05-15T07:59:07.838Z,16.63
2023-05-15T08:01:34.797Z,16.78
2023-05-15T08:04:01.430Z,16.79
2023-05-15T08:06:28.141Z,16.69
2023-05-15T08:08:54.877Z,16.80
2023-05-15T08:11:22.213Z,16.95
2023-05-15T08:13:49.081Z,17.03
2023-05-15T08:16:16.224Z,17.26
2023-05-15T08:18:42.888Z,17.37
2023-05-15T08:21:09.520Z,17.37
2023-05-15T08:23:36.357Z,17.03
2023-05-15T08:26:02.957Z,16.98
2023-05-15T08:28:29.602Z,17.09
2023-05-15T08:30:56.292Z,17.28
2023-05-15T08:33:22.978Z,17.43
2023-05-15T08:35:49.710Z,17.59
2023-05-15T08:38:16.400Z,17.61
2023-05-15T08:40:47.358Z,17.63
2023-05-15T08:43:17.668Z,17.61
2023-05-15T08:45:44.731Z,17.66
2023-05-15T08:48:14.860Z,17.96
2023-05-15T08:50:43.651Z,18.21
2023-05-15T08:53:14.186Z,18.30
2023-05-15T08:55:42.269Z,18.33
2023-05-15T08:58:09.717Z,18.43
2023-05-15T09:00:38.785Z,18.50
2023-05-15T09:03:05.781Z,18.51
2023-05-15T09:05:32.857Z,18.64
2023-05-15T09:08:04.087Z,18.65
2023-05-15T09:10:31.716Z,18.60
2023-05-15T09:12:59.347Z,18.72
2023-05-15T09:15:27.264Z,18.77
2023-05-15T09:17:56.189Z,18.98
2023-05-15T09:20:37.154Z,19.14
2023-05-15T09:23:06.212Z,19.17
2023-05-15T09:25:42.749Z,19.18
2023-05-15T09:28:11.537Z,19.30
2023-05-15T09:30:39.457Z,19.34
2023-05-15T09:33:06.267Z,19.47
2023-05-15T09:35:32.973Z,19.68
2023-05-15T09:38:01.466Z,19.76
2023-05-15T09:40:32.603Z,19.89
2023-05-15T09:42:59.549Z,19.90
2023-05-15T09:45:29.924Z,19.88
2023-05-15T09:47:59.882Z,19.95
2023-05-15T09:50:37.146Z,19.97
2023-05-15T09:53:04.963Z,19.93
2023-05-15T09:55:34.917Z,20.03
2023-05-15T09:58:21.369Z,20.12
2023-05-15T10:00:49.699Z,20.10
2023-05-15T10:03:18.895Z,20.15
2023-05-15T10:05:45.816Z,20.25
2023-05-15T10:08:13.021Z,20.24
2023-05-15T10:10:40.051Z,20.23
2023-05-15T10:13:08.277Z,20.43
2023-05-15T10:15:35.561Z,20.45
2023-05-15T10:18:04.399Z,20.50
2023-05-15T10:20:49.863Z,20.52
2023-05-15T10:23:18.408Z,20.56
2023-05-15T10:25:56.138Z,20.63
2023-05-15T10:28:23.057Z,20.81
2023-05-15T10:30:49.922Z,20.93
2023-05-15T10:33:19.852Z,21.02
2023-05-15T10:35:48.514Z,21.13
2023-05-15T10:38:15.967Z,21.25
2023-05-15T10:40:43.745Z,21.23
2023-05-15T10:43:13.088Z,21.21
2023-05-15T10:45:40.102Z,21.17
2023-05-15T10:48:09.327Z,21.22
2023-05-15T10:50:37.790Z,21.20
2023-05-15T10:53:04.537Z,21.36
2023-05-15T10:55:31.553Z,21.51
2023-05-15T10:58:17.940Z,21.57
2023-05-15T11:00:45.670Z,21.68
2023-05-15T11:03:16.725Z,21.72
2023-05-15T11:06:09.901Z,21.77
2023-05-15T11:08:41.651Z,21.67
2023-05-15T11:11:10.672Z,21.72
2023-05-15T11:14:05.181Z,21.87
2023-05-15T11:16:53.806Z,21.92
2023-05-15T11:19:35.188Z,21.85
2023-05-15T11:22:16.899Z,21.97
2023-05-15T11:25:09.158Z,22.05
2023-05-15T11:27:40.250Z,21.97
2023-05-15T11:30:10.019Z,22.01
2023-05-15T11:32:52.803Z,21.97
2023-05-15T11:35:44.080Z,21.97
2023-05-15T11:38:10.974Z,21.79
2023-05-15T11:40:52.892Z,21.58
2023-05-15T11:43:32.829Z,21.58
2023-05-15T11:46:10.948Z,21.56
2023-05-15T11:48:40.107Z,21.55
2023-05-15T11:51:16.545Z,21.60
2023-05-15T11:53:43.580Z,21.72
2023-05-15T11:56:23.787Z,21.83
2023-05-15T11:58:51.978Z,21.86
2023-05-15T12:01:18.664Z,22.02
2023-05-15T12:03:48.319Z,22.12
2023-05-15T12:06:15.568Z,22.13
2023-05-15T12:08:42.354Z,22.01
2023-05-15T12:11:09.664Z,21.86
2023-05-15T12:13:36.388Z,21.87
2023-05-15T12:16:04.113Z,21.97
2023-05-15T12:18:32.369Z,21.87
2023-05-15T12:20:59.805Z,21.82
2023-05-15T12:23:28.639Z,21.83
2023-05-15T12:26:00.360Z,21.94
2023-05-15T12:28:27.468Z,21.91
2023-05-15T12:30:54.765Z,21.87
2023-05-15T12:33:21.898Z,21.92
2023-05-15T12:35:58.024Z,21.86
2023-05-15T12:38:26.958Z,21.99
2023-05-15T12:41:12.740Z,22.15
2023-05-15T12:43:39.640Z,22.13
2023-05-15T12:46:06.448Z,22.03
2023-05-15T12:48:33.564Z,22.14
2023-05-15T12:51:08.135Z,22.27
2023-05-15T12:53:36.407Z,22.39
2023-05-15T12:56:04.924Z,22.56
2023-05-15T12:58:31.632Z,22.78
2023-05-15T13:00:58.969Z,22.95
2023-05-15T13:03:26.519Z,23.03
2023-05-15T13:05:53.355Z,22.83
2023-05-15T13:08:20.521Z,22.52
2023-05-15T13:10:47.964Z,22.30
2023-05-15T13:13:15.588Z,22.12
2023-05-15T13:15:48.484Z,22.07
2023-05-15T13:18:18.606Z,22.06
2023-05-15T13:20:50.090Z,22.01
2023-05-15T13:23:19.491Z,21.94
2023-05-15T13:25:46.566Z,21.96
2023-05-15T13:28:13.932Z,21.96
2023-05-15T13:30:42.238Z,21.94
2023-05-15T13:33:10.616Z,21.94
2023-05-15T13:35:38.404Z,21.90
2023-05-15T13:38:25.212Z,21.77
2023-05-15T13:40:51.965Z,21.69
2023-05-15T13:43:18.593Z,21.69
2023-05-15T13:45:45.259Z,21.72
2023-05-15T13:48:11.906Z,21.67
2023-05-15T13:50:57.554Z,21.64
2023-05-15T13:53:24.127Z,21.55
2023-05-15T13:55:51.894Z,21.55
2023-05-15T13:58:21.222Z,21.46
2023-05-15T14:00:48.874Z,21.58
2023-05-15T14:03:15.904Z,21.57
2023-05-15T14:05:42.618Z,21.49
2023-05-15T14:08:09.406Z,21.50
2023-05-15T14:10:37.505Z,21.58
2023-05-15T14:13:04.569Z,21.68
2023-05-15T14:15:31.155Z,21.62
2023-05-15T14:17:57.948Z,21.50
2023-05-15T14:20:25.695Z,21.37
2023-05-15T14:22:52.464Z,21.29
2023-05-15T14:25:19.171Z,21.27
2023-05-15T14:27:46.693Z,21.38
2023-05-15T14:30:14.529Z,21.50
2023-05-15T14:32:41.563Z,21.57
2023-05-15T14:35:08.319Z,21.50
2023-05-15T14:37:36.685Z,21.43
2023-05-15T14:40:05.108Z,21.27
2023-05-15T14:42:32.147Z,21.28
2023-05-15T14:44:58.895Z,21.24
2023-05-15T14:47:27.942Z,21.25
2023-05-15T14:49:54.580Z,21.13
2023-05-15T14:52:21.293Z,21.06
2023-05-15T14:54:56.959Z,21.04
2023-05-15T14:57:34.572Z,21.07
2023-05-15T15:00:02.455Z,21.08
2023-05-15T15:02:29.145Z,20.96
2023-05-15T15:04:57.974Z,20.65
2023-05-15T15:07:29.691Z,20.48
2023-05-15T15:09:56.319Z,20.36
2023-05-15T15:12:24.132Z,20.34
2023-05-15T15:14:50.760Z,20.22
2023-05-15T15:17:18.477Z,20.11
2023-05-15T15:19:50.857Z,20.04
2023-05-15T15:22:17.600Z,19.88
2023-05-15T15:24:44.299Z,19.88
2023-05-15T15:27:10.913Z,19.77
2023-05-15T15:29:37.567Z,19.60
2023-05-15T15:32:04.723Z,19.46
2023-05-15T15:34:31.332Z,19.50
2023-05-15T15:36:57.953Z,19.54
2023-05-15T15:39:24.733Z,19.50
2023-05-15T15:41:51.402Z,19.38
2023-05-15T15:44:18.292Z,19.30
2023-05-15T15:46:44.919Z,19.27
2023-05-15T15:49:11.694Z,19.10
2023-05-15T15:51:38.574Z,19.12
2023-05-15T15:54:05.531Z,19.21
2023-05-15T15:56:33.525Z,19.41
2023-05-15T15:59:00.162Z,19.50
2023-05-15T16:01:27.581Z,19.41
2023-05-15T16:03:54.349Z,19.47
2023-05-15T16:06:21.156Z,19.53
2023-05-15T16:08:47.756Z,19.52
2023-05-15T16:11:15.773Z,19.49
2023-05-15T16:13:43.728Z,19.41
2023-05-15T16:16:10.654Z,19.48
2023-05-15T16:18:37.565Z,19.44
2023-05-15T16:21:04.397Z,19.36
2023-05-15T16:23:37.961Z,19.35
2023-05-15T16:26:05.110Z,19.32
2023-05-15T16:28:32.438Z,19.34
2023-05-15T16:30:59.887Z,19.27
2023-05-15T16:33:26.871Z,19.26
2023-05-15T16:35:53.699Z,19.30
2023-05-15T16:38:20.998Z,19.12
2023-05-15T16:40:47.734Z,19.04
2023-05-15T16:43:15.790Z,18.97
2023-05-15T16:45:42.937Z,18.84
2023-05-15T16:48:09.606Z,18.81
2023-05-15T16:50:37.235Z,18.82
2023-05-15T16:53:04.905Z,18.72
2023-05-15T16:55:32.521Z,18.70
2023-05-15T16:57:59.435Z,18.63
2023-05-15T17:00:26.517Z,18.62
2023-05-15T17:02:53.791Z,18.63
2023-05-15T17:05:20.744Z,18.54
2023-05-15T17:07:47.481Z,18.29
2023-05-15T17:10:25.509Z,18.15
2023-05-15T17:13:01.076Z,18.06
2023-05-15T17:15:28.038Z,17.98
2023-05-15T17:17:54.928Z,17.92
2023-05-15T17:20:21.619Z,17.94
2023-05-15T17:22:48.377Z,17.97
2023-05-15T17:25:15.041Z,17.99
2023-05-15T17:27:41.971Z,18.06
2023-05-15T17:30:10.441Z,18.14
2023-05-15T17:32:38.935Z,18.19
2023-05-15T17:35:06.450Z,18.15
2023-05-15T17:37:33.836Z,18.06
2023-05-15T17:40:00.873Z,17.99
2023-05-15T17:42:28.483Z,17.81
2023-05-15T17:44:56.476Z,17.67
2023-05-15T17:47:23.599Z,17.53
2023-05-15T17:49:50.355Z,17.47
2023-05-15T17:52:17.166Z,17.35
2023-05-15T17:54:43.835Z,17.39
2023-05-15T17:57:11.029Z,17.26
2023-05-15T17:59:37.804Z,17.18
2023-05-15T18:02:04.806Z,17.19
2023-05-15T18:04:31.493Z,17.12
2023-05-15T18:06:58.277Z,17.15
2023-05-15T18:09:25.450Z,17.05
2023-05-15T18:11:52.177Z,17.02
2023-05-15T18:14:18.958Z,16.88
2023-05-15T18:16:45.834Z,16.73
2023-05-15T18:19:12.761Z,16.70
2023-05-15T18:21:39.468Z,16.66
2023-05-15T18:24:06.745Z,16.65
2023-05-15T18:26:33.530Z,16.56
2023-05-15T18:29:00.161Z,16.42
2023-05-15T18:31:26.936Z,16.28
2023-05-15T18:33:53.735Z,16.18
2023-05-15T18:36:20.385Z,16.08
2023-05-15T18:38:47.008Z,16.08
2023-05-15T18:41:13.618Z,16.08
2023-05-15T18:43:40.597Z,16.02
2023-05-15T18:46:07.283Z,15.93
2023-05-15T18:48:33.873Z,15.78
2023-05-15T18:51:00.665Z,15.75
2023-05-15T18:53:28.446Z,15.68
2023-05-15T18:55:55.063Z,15.65
2023-05-15T18:58:22.051Z,15.66
2023-05-15T19:00:50.867Z,15.63
2023-05-15T19:03:18.879Z,15.62
2023-05-15T19:05:45.708Z,15.68
2023-05-15T19:08:12.310Z,15.71
2023-05-15T19:10:38.858Z,15.62
2023-05-15T19:13:05.808Z,15.55
2023-05-15T19:15:32.744Z,15.44
2023-05-15T19:17:59.497Z,15.38
2023-05-15T19:20:26.906Z,15.27
2023-05-15T19:22:55.749Z,15.27
2023-05-15T19:25:22.748Z,15.21
2023-05-15T19:27:49.939Z,15.16
2023-05-15T19:30:16.543Z,15.19
2023-05-15T19:32:43.270Z,15.10
2023-05-15T19:35:10.262Z,15.11
2023-05-15T19:37:37.417Z,15.06
2023-05-15T19:40:07.082Z,14.98
2023-05-15T19:42:33.787Z,14.96
2023-05-15T19:45:00.678Z,15.01
2023-05-15T19:47:27.484Z,15.04
2023-05-15T19:49:54.407Z,15.08
2023-05-15T19:52:21.155Z,15.03
2023-05-15T19:54:47.792Z,15.00
2023-05-15T19:57:14.420Z,14.92
2023-05-15T19:59:41.215Z,14.89
2023-05-15T20:02:11.229Z,14.88
2023-05-15T20:04:37.994Z,14.88
2023-05-15T20:07:05.203Z,14.87
2023-05-15T20:09:33.804Z,14.80
2023-05-15T20:12:00.883Z,14.65
2023-05-15T20:14:28.002Z,14.54
2023-05-15T20:16:54.782Z,14.46
2023-05-15T20:19:22.400Z,14.39
2023-05-15T20:21:50.646Z,14.34
2023-05-15T20:24:18.109Z,14.21
2023-05-15T20:26:45.198Z,14.18
2023-05-15T20:29:13.257Z,14.04
2023-05-15T20:31:40.570Z,13.95
2023-05-15T20:34:08.212Z,13.99
2023-05-15T20:36:34.970Z,13.97
2023-05-15T20:39:05.681Z,13.97
2023-05-15T20:41:33.552Z,14.01
2023-05-15T20:44:00.451Z,13.84
2023-05-15T20:46:29.937Z,13.79
2023-05-15T20:48:56.841Z,13.77
2023-05-15T20:51:24.103Z,13.80
2023-05-15T20:53:52.089Z,13.84
2023-05-15T20:56:18.963Z,13.79
2023-05-15T20:58:45.707Z,13.71
2023-05-15T21:01:12.447Z,13.62
2023-05-15T21:03:39.245Z,13.62
2023-05-15T21:06:06.069Z,13.63
2023-05-15T21:08:53.071Z,13.47
2023-05-15T21:11:19.806Z,13.39
2023-05-15T21:13:46.500Z,13.41
2023-05-15T21:16:13.153Z,13.40
2023-05-15T21:18:40.070Z,13.36
2023-05-15T21:21:07.309Z,13.35
2023-05-15T21:23:36.607Z,13.30
2023-05-15T21:26:03.955Z,13.21
2023-05-15T21:28:30.879Z,13.23
2023-05-15T21:30:57.838Z,13.28
2023-05-15T21:33:24.501Z,13.25
2023-05-15T21:35:51.678Z,13.25
2023-05-15T21:38:18.521Z,13.23
2023-05-15T21:40:45.304Z,13.19
2023-05-15T21:43:12.045Z,13.10
2023-05-15T21:45:38.828Z,13.14
2023-05-15T21:48:05.656Z,13.14
2023-05-15T21:50:32.784Z,13.07
2023-05-15T21:52:59.511Z,13.01
2023-05-15T21:55:26.328Z,12.94
2023-05-15T21:57:52.866Z,12.88
2023-05-15T22:00:19.758Z,12.89
2023-05-15T22:02:46.565Z,12.91
2023-05-15T22:05:13.542Z,12.94
2023-05-15T22:07:40.499Z,12.97
2023-05-15T22:10:07.738Z,12.86
2023-05-15T22:12:34.777Z,12.82
2023-05-15T22:15:01.384Z,12.80
2023-05-15T22:17:29.396Z,12.77
2023-05-15T22:20:08.126Z,12.70
2023-05-15T22:22:35.756Z,12.61
2023-05-15T22:25:02.755Z,12.63
2023-05-15T22:27:29.427Z,12.58
2023-05-15T22:29:56.425Z,12.50
2023-05-15T22:32:23.462Z,12.47
2023-05-15T22:34:50.329Z,12.44
2023-05-15T22:37:16.965Z,12.42
2023-05-15T22:39:43.939Z,12.41
2023-05-15T22:42:10.666Z,12.35
2023-05-15T22:44:37.565Z,12.31
2023-05-15T22:47:04.380Z,12.32
2023-05-15T22:49:31.183Z,12.27
2023-05-15T22:51:58.448Z,12.19
2023-05-15T22:54:25.262Z,12.12
2023-05-15T22:56:52.663Z,12.08
2023-05-15T22:59:19.980Z,12.11
2023-05-15T23:01:47.485Z,12.00
2023-05-15T23:04:15.187Z,11.99
2023-05-15T23:06:41.963Z,11.95
2023-05-15T23:09:09.822Z,11.98
2023-05-15T23:11:37.855Z,12.01
2023-05-15T23:14:04.605Z,11.95
2023-05-15T23:16:31.808Z,11.95
2023-05-15T23:18:59.839Z,11.90
2023-05-15T23:21:27.008Z,11.81
2023-05-15T23:23:54.026Z,11.79
2023-05-15T23:26:22.106Z,11.76
2023-05-15T23:28:48.833Z,11.78
2023-05-15T23:31:15.717Z,11.75
2023-05-15T23:33:42.985Z,11.77
2023-05-15T23:36:09.905Z,11.78
2023-05-15T23:38:37.611Z,11.80
2023-05-15T23:41:04.390Z,11.76
2023-05-15T23:43:32.224Z,11.77
2023-05-15T23:45:58.940Z,11.76
2023-05-15T23:48:26.350Z,11.70
2023-05-15T23:50:53.088Z,11.67
2023-05-15T23:53:20.918Z,11.74
2023-05-15T23:55:47.859Z,11.66
2023-05-15T23:58:14.610Z,11.67
